sensor_id;sensor_type;location;lat;lon;timestamp;temperature;humidity
69031;DHT22;56083;48.774;8.942;2022-08-24T00:01:47;15.80;99.90
69031;DHT22;56083;48.774;8.942;2022-08-24T00:04:12;15.70;99.90
69031;DHT22;56083;48.774;8.942;2022-08-24T00:06:38;15.70;99.90
69031;DHT22;56083;48.774;8.942;2022-08-24T00:09:04;15.70;99.90
69031;DHT22;56083;48.774;8.942;2022-08-24T00:11:30;15.60;99.90
69031;DHT22;56083;48.774;8.942;2022-08-24T00:13:55;15.60;99.90
69031;DHT22;56083;48.774;8.942;2022-08-24T00:16:22;15.60;99.90
69031;DHT22;56083;48.774;8.942;2022-08-24T00:18:48;15.60;99.90
69031;DHT22;56083;48.774;8.942;2022-08-24T00:21:14;15.60;99.90
69031;DHT22;56083;48.774;8.942;2022-08-24T00:23:40;15.60;99.90
69031;DHT22;56083;48.774;8.942;2022-08-24T00:26:06;15.50;99.90
69031;DHT22;56083;48.774;8.942;2022-08-24T00:28:32;15.40;99.90
69031;DHT22;56083;48.774;8.942;2022-08-24T00:30:58;15.30;99.90
69031;DHT22;56083;48.774;8.942;2022-08-24T00:33:24;15.30;99.90
69031;DHT22;56083;48.774;8.942;2022-08-24T00:35:50;15.20;99.90
69031;DHT22;56083;48.774;8.942;2022-08-24T00:38:16;15.20;99.90
69031;DHT22;56083;48.774;8.942;2022-08-24T00:40:45;15.20;99.90
69031;DHT22;56083;48.774;8.942;2022-08-24T00:43:12;15.20;99.90
69031;DHT22;56083;48.774;8.942;2022-08-24T00:45:44;15.10;99.90
69031;DHT22;56083;48.774;8.942;2022-08-24T00:48:14;15.10;99.90
69031;DHT22;56083;48.774;8.942;2022-08-24T00:51:06;15.10;99.90
69031;DHT22;56083;48.774;8.942;2022-08-24T00:53:52;15.10;99.90
69031;DHT22;56083;48.774;8.942;2022-08-24T00:56:34;15.10;99.90
69031;DHT22;56083;48.774;8.942;2022-08-24T00:59:04;15.10;99.90
69031;DHT22;56083;48.774;8.942;2022-08-24T01:01:33;15.00;99.90
69031;DHT22;56083;48.774;8.942;2022-08-24T01:04:02;15.00;99.90
69031;DHT22;56083;48.774;8.942;2022-08-24T01:06:30;14.90;99.90
69031;DHT22;56083;48.774;8.942;2022-08-24T01:08:58;14.90;99.90
69031;DHT22;56083;48.774;8.942;2022-08-24T01:11:25;14.90;99.90
69031;DHT22;56083;48.774;8.942;2022-08-24T01:13:52;14.90;99.90
69031;DHT22;56083;48.774;8.942;2022-08-24T01:16:20;14.90;99.90
69031;DHT22;56083;48.774;8.942;2022-08-24T01:19:13;14.80;99.90
69031;DHT22;56083;48.774;8.942;2022-08-24T01:24:34;14.70;99.90
69031;DHT22;56083;48.774;8.942;2022-08-24T01:27:00;14.70;99.90
69031;DHT22;56083;48.774;8.942;2022-08-24T01:29:28;14.60;99.90
69031;DHT22;56083;48.774;8.942;2022-08-24T01:31:57;14.60;99.90
69031;DHT22;56083;48.774;8.942;2022-08-24T01:34:22;14.50;99.90
69031;DHT22;56083;48.774;8.942;2022-08-24T01:36:55;14.50;99.90
69031;DHT22;56083;48.774;8.942;2022-08-24T01:39:35;14.50;99.90
69031;DHT22;56083;48.774;8.942;2022-08-24T01:42:02;14.50;99.90
69031;DHT22;56083;48.774;8.942;2022-08-24T01:44:30;14.40;99.90
69031;DHT22;56083;48.774;8.942;2022-08-24T01:46:59;14.40;99.90
69031;DHT22;56083;48.774;8.942;2022-08-24T01:49:28;14.40;99.90
69031;DHT22;56083;48.774;8.942;2022-08-24T01:51:55;14.40;99.90
69031;DHT22;56083;48.774;8.942;2022-08-24T01:54:21;14.40;99.90
69031;DHT22;56083;48.774;8.942;2022-08-24T01:56:47;14.40;99.90
69031;DHT22;56083;48.774;8.942;2022-08-24T01:59:13;14.40;99.90
69031;DHT22;56083;48.774;8.942;2022-08-24T02:01:54;14.40;99.90
69031;DHT22;56083;48.774;8.942;2022-08-24T02:04:21;14.40;99.90
69031;DHT22;56083;48.774;8.942;2022-08-24T02:06:47;14.40;99.90
69031;DHT22;56083;48.774;8.942;2022-08-24T02:09:12;14.40;99.90
69031;DHT22;56083;48.774;8.942;2022-08-24T02:11:39;14.30;99.90
69031;DHT22;56083;48.774;8.942;2022-08-24T02:14:05;14.20;99.90
69031;DHT22;56083;48.774;8.942;2022-08-24T02:16:31;14.20;99.90
69031;DHT22;56083;48.774;8.942;2022-08-24T02:18:57;14.20;99.90
69031;DHT22;56083;48.774;8.942;2022-08-24T02:21:23;14.20;99.90
69031;DHT22;56083;48.774;8.942;2022-08-24T02:23:50;14.10;99.90
69031;DHT22;56083;48.774;8.942;2022-08-24T02:26:16;14.20;99.90
69031;DHT22;56083;48.774;8.942;2022-08-24T02:28:42;14.10;99.90
69031;DHT22;56083;48.774;8.942;2022-08-24T02:31:09;14.10;99.90
69031;DHT22;56083;48.774;8.942;2022-08-24T02:33:37;14.10;99.90
69031;DHT22;56083;48.774;8.942;2022-08-24T02:36:04;14.10;99.90
69031;DHT22;56083;48.774;8.942;2022-08-24T02:38:31;14.10;99.90
69031;DHT22;56083;48.774;8.942;2022-08-24T02:40:57;14.10;99.90
69031;DHT22;56083;48.774;8.942;2022-08-24T02:43:23;14.10;99.90
69031;DHT22;56083;48.774;8.942;2022-08-24T02:45:49;14.00;99.90
69031;DHT22;56083;48.774;8.942;2022-08-24T02:48:16;14.00;99.90
69031;DHT22;56083;48.774;8.942;2022-08-24T02:50:45;14.00;99.90
69031;DHT22;56083;48.774;8.942;2022-08-24T02:53:13;14.00;99.90
69031;DHT22;56083;48.774;8.942;2022-08-24T02:55:41;13.90;99.90
69031;DHT22;56083;48.774;8.942;2022-08-24T02:58:09;13.90;99.90
69031;DHT22;56083;48.774;8.942;2022-08-24T03:00:36;13.90;99.90
69031;DHT22;56083;48.774;8.942;2022-08-24T03:03:04;13.90;99.90
69031;DHT22;56083;48.774;8.942;2022-08-24T03:05:31;13.80;99.90
69031;DHT22;56083;48.774;8.942;2022-08-24T03:07:56;13.80;99.90
69031;DHT22;56083;48.774;8.942;2022-08-24T03:10:22;13.90;99.90
69031;DHT22;56083;48.774;8.942;2022-08-24T03:12:49;13.80;99.90
69031;DHT22;56083;48.774;8.942;2022-08-24T03:15:15;13.70;99.90
69031;DHT22;56083;48.774;8.942;2022-08-24T03:17:42;13.70;99.90
69031;DHT22;56083;48.774;8.942;2022-08-24T03:20:11;13.70;99.90
69031;DHT22;56083;48.774;8.942;2022-08-24T03:22:38;13.70;99.90
69031;DHT22;56083;48.774;8.942;2022-08-24T03:25:05;13.70;99.90
69031;DHT22;56083;48.774;8.942;2022-08-24T03:27:32;13.60;99.90
69031;DHT22;56083;48.774;8.942;2022-08-24T03:29:57;13.50;99.90
69031;DHT22;56083;48.774;8.942;2022-08-24T03:32:23;13.50;99.90
69031;DHT22;56083;48.774;8.942;2022-08-24T03:34:48;13.50;99.90
69031;DHT22;56083;48.774;8.942;2022-08-24T03:37:14;13.50;99.90
69031;DHT22;56083;48.774;8.942;2022-08-24T03:39:40;13.50;99.90
69031;DHT22;56083;48.774;8.942;2022-08-24T03:42:06;13.60;99.90
69031;DHT22;56083;48.774;8.942;2022-08-24T03:44:32;13.50;99.90
69031;DHT22;56083;48.774;8.942;2022-08-24T03:46:58;13.50;99.90
69031;DHT22;56083;48.774;8.942;2022-08-24T03:49:23;13.40;99.90
69031;DHT22;56083;48.774;8.942;2022-08-24T03:51:49;13.30;99.90
69031;DHT22;56083;48.774;8.942;2022-08-24T03:54:15;13.30;99.90
69031;DHT22;56083;48.774;8.942;2022-08-24T03:56:41;13.30;99.90
69031;DHT22;56083;48.774;8.942;2022-08-24T03:59:08;13.20;99.90
69031;DHT22;56083;48.774;8.942;2022-08-24T04:01:35;13.20;99.90
69031;DHT22;56083;48.774;8.942;2022-08-24T04:04:01;13.10;99.90
69031;DHT22;56083;48.774;8.942;2022-08-24T04:06:28;13.10;99.90
69031;DHT22;56083;48.774;8.942;2022-08-24T04:08:54;13.10;99.90
69031;DHT22;56083;48.774;8.942;2022-08-24T04:11:23;13.10;99.90
69031;DHT22;56083;48.774;8.942;2022-08-24T04:13:51;13.10;99.90
69031;DHT22;56083;48.774;8.942;2022-08-24T04:16:19;13.00;99.90
69031;DHT22;56083;48.774;8.942;2022-08-24T04:18:46;13.00;99.90
69031;DHT22;56083;48.774;8.942;2022-08-24T04:21:40;12.90;99.90
69031;DHT22;56083;48.774;8.942;2022-08-24T04:24:07;12.90;99.90
69031;DHT22;56083;48.774;8.942;2022-08-24T04:26:35;12.80;99.90
69031;DHT22;56083;48.774;8.942;2022-08-24T04:29:02;12.80;99.90
69031;DHT22;56083;48.774;8.942;2022-08-24T04:31:28;12.80;99.90
69031;DHT22;56083;48.774;8.942;2022-08-24T04:33:55;12.90;99.90
69031;DHT22;56083;48.774;8.942;2022-08-24T04:36:21;12.90;99.90
69031;DHT22;56083;48.774;8.942;2022-08-24T04:38:48;12.90;99.90
69031;DHT22;56083;48.774;8.942;2022-08-24T04:41:15;13.00;99.90
69031;DHT22;56083;48.774;8.942;2022-08-24T04:43:44;13.10;99.90
69031;DHT22;56083;48.774;8.942;2022-08-24T04:46:12;13.20;99.90
69031;DHT22;56083;48.774;8.942;2022-08-24T04:48:40;13.20;99.90
69031;DHT22;56083;48.774;8.942;2022-08-24T04:51:08;13.30;99.90
69031;DHT22;56083;48.774;8.942;2022-08-24T04:53:34;13.40;99.90
69031;DHT22;56083;48.774;8.942;2022-08-24T04:56:01;13.50;99.90
69031;DHT22;56083;48.774;8.942;2022-08-24T04:58:28;13.60;99.90
69031;DHT22;56083;48.774;8.942;2022-08-24T05:00:54;13.70;99.90
69031;DHT22;56083;48.774;8.942;2022-08-24T05:03:20;13.90;99.90
69031;DHT22;56083;48.774;8.942;2022-08-24T05:05:48;14.00;99.90
69031;DHT22;56083;48.774;8.942;2022-08-24T05:08:16;14.00;99.90
69031;DHT22;56083;48.774;8.942;2022-08-24T05:10:44;14.10;99.90
69031;DHT22;56083;48.774;8.942;2022-08-24T05:13:11;14.30;99.90
69031;DHT22;56083;48.774;8.942;2022-08-24T05:15:41;14.40;99.90
69031;DHT22;56083;48.774;8.942;2022-08-24T05:18:07;14.50;99.90
69031;DHT22;56083;48.774;8.942;2022-08-24T05:20:33;14.70;99.90
69031;DHT22;56083;48.774;8.942;2022-08-24T05:23:02;14.80;99.90
69031;DHT22;56083;48.774;8.942;2022-08-24T05:25:27;15.10;99.90
69031;DHT22;56083;48.774;8.942;2022-08-24T05:27:53;15.20;99.90
69031;DHT22;56083;48.774;8.942;2022-08-24T05:30:19;15.40;99.90
69031;DHT22;56083;48.774;8.942;2022-08-24T05:32:45;15.50;99.90
69031;DHT22;56083;48.774;8.942;2022-08-24T05:35:11;15.60;99.90
69031;DHT22;56083;48.774;8.942;2022-08-24T05:37:38;15.70;99.90
69031;DHT22;56083;48.774;8.942;2022-08-24T05:40:07;15.80;99.90
69031;DHT22;56083;48.774;8.942;2022-08-24T05:42:35;15.80;99.90
69031;DHT22;56083;48.774;8.942;2022-08-24T05:45:00;15.90;99.90
69031;DHT22;56083;48.774;8.942;2022-08-24T05:47:26;16.00;99.90
69031;DHT22;56083;48.774;8.942;2022-08-24T05:49:52;16.10;99.90
69031;DHT22;56083;48.774;8.942;2022-08-24T05:52:20;16.20;99.90
69031;DHT22;56083;48.774;8.942;2022-08-24T05:54:54;16.40;99.90
69031;DHT22;56083;48.774;8.942;2022-08-24T05:57:21;16.50;99.90
69031;DHT22;56083;48.774;8.942;2022-08-24T05:59:48;16.70;99.90
69031;DHT22;56083;48.774;8.942;2022-08-24T06:02:14;16.80;99.90
69031;DHT22;56083;48.774;8.942;2022-08-24T06:04:40;16.90;99.90
69031;DHT22;56083;48.774;8.942;2022-08-24T06:07:06;16.90;99.90
69031;DHT22;56083;48.774;8.942;2022-08-24T06:09:36;17.00;99.90
69031;DHT22;56083;48.774;8.942;2022-08-24T06:12:03;17.20;99.90
69031;DHT22;56083;48.774;8.942;2022-08-24T06:14:29;17.40;99.90
69031;DHT22;56083;48.774;8.942;2022-08-24T06:16:54;17.60;99.90
69031;DHT22;56083;48.774;8.942;2022-08-24T06:19:21;17.80;99.90
69031;DHT22;56083;48.774;8.942;2022-08-24T06:21:49;18.00;99.90
69031;DHT22;56083;48.774;8.942;2022-08-24T06:24:16;18.20;99.90
69031;DHT22;56083;48.774;8.942;2022-08-24T06:26:43;18.50;99.90
69031;DHT22;56083;48.774;8.942;2022-08-24T06:29:27;18.60;99.90
69031;DHT22;56083;48.774;8.942;2022-08-24T06:31:53;18.80;99.90
69031;DHT22;56083;48.774;8.942;2022-08-24T06:34:21;19.00;99.90
69031;DHT22;56083;48.774;8.942;2022-08-24T06:36:47;19.30;99.90
69031;DHT22;56083;48.774;8.942;2022-08-24T06:39:13;19.50;99.90
69031;DHT22;56083;48.774;8.942;2022-08-24T06:41:39;19.80;99.90
69031;DHT22;56083;48.774;8.942;2022-08-24T06:44:05;20.30;99.90
69031;DHT22;56083;48.774;8.942;2022-08-24T06:46:32;20.70;99.90
69031;DHT22;56083;48.774;8.942;2022-08-24T06:48:58;21.10;99.90
69031;DHT22;56083;48.774;8.942;2022-08-24T06:51:24;21.60;99.90
69031;DHT22;56083;48.774;8.942;2022-08-24T06:53:50;22.20;99.90
69031;DHT22;56083;48.774;8.942;2022-08-24T06:56:17;22.70;99.90
69031;DHT22;56083;48.774;8.942;2022-08-24T06:58:44;23.50;99.90
69031;DHT22;56083;48.774;8.942;2022-08-24T07:01:25;23.90;99.90
69031;DHT22;56083;48.774;8.942;2022-08-24T07:03:51;24.20;99.90
69031;DHT22;56083;48.774;8.942;2022-08-24T07:06:18;24.80;99.90
69031;DHT22;56083;48.774;8.942;2022-08-24T07:08:44;25.30;99.90
69031;DHT22;56083;48.774;8.942;2022-08-24T07:11:11;25.70;99.90
69031;DHT22;56083;48.774;8.942;2022-08-24T07:13:39;26.30;99.90
69031;DHT22;56083;48.774;8.942;2022-08-24T07:16:05;26.90;99.90
69031;DHT22;56083;48.774;8.942;2022-08-24T07:18:31;27.00;99.90
69031;DHT22;56083;48.774;8.942;2022-08-24T07:20:59;27.60;99.90
69031;DHT22;56083;48.774;8.942;2022-08-24T07:23:27;27.80;99.90
69031;DHT22;56083;48.774;8.942;2022-08-24T07:25:52;27.90;99.90
69031;DHT22;56083;48.774;8.942;2022-08-24T07:28:18;28.00;99.30
69031;DHT22;56083;48.774;8.942;2022-08-24T07:30:44;27.70;98.20
69031;DHT22;56083;48.774;8.942;2022-08-24T07:33:11;27.90;97.70
69031;DHT22;56083;48.774;8.942;2022-08-24T07:35:37;28.20;97.00
69031;DHT22;56083;48.774;8.942;2022-08-24T07:38:04;28.20;95.60
69031;DHT22;56083;48.774;8.942;2022-08-24T07:40:30;28.90;94.10
69031;DHT22;56083;48.774;8.942;2022-08-24T07:42:57;29.40;91.90
69031;DHT22;56083;48.774;8.942;2022-08-24T07:45:24;29.80;91.10
69031;DHT22;56083;48.774;8.942;2022-08-24T07:47:51;30.00;87.60
69031;DHT22;56083;48.774;8.942;2022-08-24T07:50:17;30.40;85.90
69031;DHT22;56083;48.774;8.942;2022-08-24T07:52:44;30.90;83.30
69031;DHT22;56083;48.774;8.942;2022-08-24T07:55:12;31.40;81.00
69031;DHT22;56083;48.774;8.942;2022-08-24T07:57:39;31.80;77.60
69031;DHT22;56083;48.774;8.942;2022-08-24T08:00:11;32.20;76.30
69031;DHT22;56083;48.774;8.942;2022-08-24T08:02:38;32.50;74.70
69031;DHT22;56083;48.774;8.942;2022-08-24T08:05:06;33.20;72.40
69031;DHT22;56083;48.774;8.942;2022-08-24T08:07:31;33.90;68.30
69031;DHT22;56083;48.774;8.942;2022-08-24T08:09:57;33.90;64.90
69031;DHT22;56083;48.774;8.942;2022-08-24T08:12:23;34.80;63.00
69031;DHT22;56083;48.774;8.942;2022-08-24T08:14:48;35.20;59.80
69031;DHT22;56083;48.774;8.942;2022-08-24T08:17:14;35.30;58.00
69031;DHT22;56083;48.774;8.942;2022-08-24T08:19:41;35.20;56.90
69031;DHT22;56083;48.774;8.942;2022-08-24T08:22:08;35.30;56.30
69031;DHT22;56083;48.774;8.942;2022-08-24T08:24:53;35.40;55.00
69031;DHT22;56083;48.774;8.942;2022-08-24T08:27:18;35.20;54.90
69031;DHT22;56083;48.774;8.942;2022-08-24T08:29:46;35.20;53.80
69031;DHT22;56083;48.774;8.942;2022-08-24T08:32:13;35.00;54.30
69031;DHT22;56083;48.774;8.942;2022-08-24T08:34:43;35.10;54.10
69031;DHT22;56083;48.774;8.942;2022-08-24T08:37:10;35.30;53.00
69031;DHT22;56083;48.774;8.942;2022-08-24T08:39:36;35.40;52.90
69031;DHT22;56083;48.774;8.942;2022-08-24T08:50:20;35.80;50.40
69031;DHT22;56083;48.774;8.942;2022-08-24T08:53:07;35.70;49.90
69031;DHT22;56083;48.774;8.942;2022-08-24T08:55:46;35.90;50.30
69031;DHT22;56083;48.774;8.942;2022-08-24T09:12:52;37.10;44.40
69031;DHT22;56083;48.774;8.942;2022-08-24T09:18:45;37.00;42.70
69031;DHT22;56083;48.774;8.942;2022-08-24T09:27:05;37.10;42.40
69031;DHT22;56083;48.774;8.942;2022-08-24T09:37:59;38.40;41.90
69031;DHT22;56083;48.774;8.942;2022-08-24T09:40:33;39.10;40.00
69031;DHT22;56083;48.774;8.942;2022-08-24T09:48:16;40.10;38.50
69031;DHT22;56083;48.774;8.942;2022-08-24T09:50:52;39.70;38.30
69031;DHT22;56083;48.774;8.942;2022-08-24T09:59:11;38.30;38.30
69031;DHT22;56083;48.774;8.942;2022-08-24T10:02:02;38.10;38.70
69031;DHT22;56083;48.774;8.942;2022-08-24T10:04:44;38.10;38.30
69031;DHT22;56083;48.774;8.942;2022-08-24T10:07:56;38.30;38.40
69031;DHT22;56083;48.774;8.942;2022-08-24T10:10:35;38.70;38.70
69031;DHT22;56083;48.774;8.942;2022-08-24T10:13:19;39.30;37.50
69031;DHT22;56083;48.774;8.942;2022-08-24T10:18:58;40.60;35.00
69031;DHT22;56083;48.774;8.942;2022-08-24T10:22:05;40.90;35.30
69031;DHT22;56083;48.774;8.942;2022-08-24T10:27:38;40.90;35.20
69031;DHT22;56083;48.774;8.942;2022-08-24T10:33:20;41.30;34.20
69031;DHT22;56083;48.774;8.942;2022-08-24T10:54:55;42.40;33.10
69031;DHT22;56083;48.774;8.942;2022-08-24T10:57:33;41.90;33.70
69031;DHT22;56083;48.774;8.942;2022-08-24T11:00:09;42.80;33.50
69031;DHT22;56083;48.774;8.942;2022-08-24T11:02:43;43.20;33.20
69031;DHT22;56083;48.774;8.942;2022-08-24T11:05:16;43.30;32.30
69031;DHT22;56083;48.774;8.942;2022-08-24T11:08:05;43.40;32.20
69031;DHT22;56083;48.774;8.942;2022-08-24T11:10:37;42.70;32.80
69031;DHT22;56083;48.774;8.942;2022-08-24T11:13:23;42.70;32.80
69031;DHT22;56083;48.774;8.942;2022-08-24T11:15:52;43.50;32.80
69031;DHT22;56083;48.774;8.942;2022-08-24T11:18:19;43.40;32.10
69031;DHT22;56083;48.774;8.942;2022-08-24T11:20:47;43.20;32.60
69031;DHT22;56083;48.774;8.942;2022-08-24T11:23:35;42.70;32.80
69031;DHT22;56083;48.774;8.942;2022-08-24T11:26:05;43.30;33.20
69031;DHT22;56083;48.774;8.942;2022-08-24T11:28:44;43.80;32.30
69031;DHT22;56083;48.774;8.942;2022-08-24T11:31:20;43.30;31.90
69031;DHT22;56083;48.774;8.942;2022-08-24T11:33:58;42.80;32.10
69031;DHT22;56083;48.774;8.942;2022-08-24T11:36:27;40.70;31.70
69031;DHT22;56083;48.774;8.942;2022-08-24T11:39:14;40.60;33.80
69031;DHT22;56083;48.774;8.942;2022-08-24T11:42:24;41.60;31.60
69031;DHT22;56083;48.774;8.942;2022-08-24T11:47:57;38.20;34.60
69031;DHT22;56083;48.774;8.942;2022-08-24T11:50:38;37.20;35.90
69031;DHT22;56083;48.774;8.942;2022-08-24T11:58:36;38.60;34.70
69031;DHT22;56083;48.774;8.942;2022-08-24T12:01:39;37.90;35.00
69031;DHT22;56083;48.774;8.942;2022-08-24T12:04:36;39.60;35.30
69031;DHT22;56083;48.774;8.942;2022-08-24T12:20:45;42.30;30.00
69031;DHT22;56083;48.774;8.942;2022-08-24T12:23:27;42.80;30.20
69031;DHT22;56083;48.774;8.942;2022-08-24T12:25:58;43.60;29.70
69031;DHT22;56083;48.774;8.942;2022-08-24T12:28:45;44.40;28.70
69031;DHT22;56083;48.774;8.942;2022-08-24T12:34:07;44.60;29.00
69031;DHT22;56083;48.774;8.942;2022-08-24T12:39:38;43.90;29.40
69031;DHT22;56083;48.774;8.942;2022-08-24T12:45:10;43.70;29.10
69031;DHT22;56083;48.774;8.942;2022-08-24T12:53:14;43.30;29.40
69031;DHT22;56083;48.774;8.942;2022-08-24T13:01:22;40.20;29.30
69031;DHT22;56083;48.774;8.942;2022-08-24T13:06:57;40.10;32.60
69031;DHT22;56083;48.774;8.942;2022-08-24T13:11:52;41.00;30.80
69031;DHT22;56083;48.774;8.942;2022-08-24T13:14:30;41.90;30.40
69031;DHT22;56083;48.774;8.942;2022-08-24T13:19:35;41.60;29.80
69031;DHT22;56083;48.774;8.942;2022-08-24T13:30:07;43.90;29.60
69031;DHT22;56083;48.774;8.942;2022-08-24T13:32:37;45.10;29.10
69031;DHT22;56083;48.774;8.942;2022-08-24T13:40:55;41.60;30.00
69031;DHT22;56083;48.774;8.942;2022-08-24T13:43:43;41.20;29.70
69031;DHT22;56083;48.774;8.942;2022-08-24T13:49:16;40.10;31.00
69031;DHT22;56083;48.774;8.942;2022-08-24T13:52:02;41.20;30.00
69031;DHT22;56083;48.774;8.942;2022-08-24T13:57:40;43.10;29.30
69031;DHT22;56083;48.774;8.942;2022-08-24T14:03:00;43.80;28.80
69031;DHT22;56083;48.774;8.942;2022-08-24T14:05:53;44.00;28.90
69031;DHT22;56083;48.774;8.942;2022-08-24T14:08:29;43.50;28.70
69031;DHT22;56083;48.774;8.942;2022-08-24T14:14:22;42.80;29.30
69031;DHT22;56083;48.774;8.942;2022-08-24T14:34:41;44.00;28.70
69031;DHT22;56083;48.774;8.942;2022-08-24T14:40:02;44.00;28.30
69031;DHT22;56083;48.774;8.942;2022-08-24T14:42:39;43.20;28.70
69031;DHT22;56083;48.774;8.942;2022-08-24T14:45:10;43.10;28.90
69031;DHT22;56083;48.774;8.942;2022-08-24T14:47:58;43.30;29.30
69031;DHT22;56083;48.774;8.942;2022-08-24T15:01:42;39.80;32.50
69031;DHT22;56083;48.774;8.942;2022-08-24T15:04:20;39.80;32.30
69031;DHT22;56083;48.774;8.942;2022-08-24T15:06:57;40.10;31.70
69031;DHT22;56083;48.774;8.942;2022-08-24T15:09:32;40.30;31.50
69031;DHT22;56083;48.774;8.942;2022-08-24T15:15:28;40.90;30.70
69031;DHT22;56083;48.774;8.942;2022-08-24T15:22:59;40.40;31.30
69031;DHT22;56083;48.774;8.942;2022-08-24T15:25:47;40.50;30.90
69031;DHT22;56083;48.774;8.942;2022-08-24T15:28:26;40.20;32.40
69031;DHT22;56083;48.774;8.942;2022-08-24T15:30:56;40.40;32.80
69031;DHT22;56083;48.774;8.942;2022-08-24T15:33:23;40.10;32.90
69031;DHT22;56083;48.774;8.942;2022-08-24T15:36:12;40.20;32.90
69031;DHT22;56083;48.774;8.942;2022-08-24T15:38:39;40.20;32.30
69031;DHT22;56083;48.774;8.942;2022-08-24T15:46:11;39.10;34.00
69031;DHT22;56083;48.774;8.942;2022-08-24T15:48:40;39.20;33.80
69031;DHT22;56083;48.774;8.942;2022-08-24T15:51:07;39.20;34.20
69031;DHT22;56083;48.774;8.942;2022-08-24T15:53:36;38.00;35.40
69031;DHT22;56083;48.774;8.942;2022-08-24T15:56:27;37.70;36.80
69031;DHT22;56083;48.774;8.942;2022-08-24T15:59:05;37.20;38.30
69031;DHT22;56083;48.774;8.942;2022-08-24T16:01:31;37.10;39.20
69031;DHT22;56083;48.774;8.942;2022-08-24T16:04:36;37.00;38.60
69031;DHT22;56083;48.774;8.942;2022-08-24T16:07:02;37.30;37.60
69031;DHT22;56083;48.774;8.942;2022-08-24T16:12:08;36.90;38.30
69031;DHT22;56083;48.774;8.942;2022-08-24T16:15:03;36.90;38.10
69031;DHT22;56083;48.774;8.942;2022-08-24T16:17:35;36.50;38.70
69031;DHT22;56083;48.774;8.942;2022-08-24T16:20:07;36.40;39.60
69031;DHT22;56083;48.774;8.942;2022-08-24T16:22:38;36.30;39.30
69031;DHT22;56083;48.774;8.942;2022-08-24T16:25:29;35.70;40.40
69031;DHT22;56083;48.774;8.942;2022-08-24T16:30:52;35.20;40.70
69031;DHT22;56083;48.774;8.942;2022-08-24T16:36:08;35.00;42.10
69031;DHT22;56083;48.774;8.942;2022-08-24T16:38:35;35.00;42.00
69031;DHT22;56083;48.774;8.942;2022-08-24T16:41:04;35.00;42.60
69031;DHT22;56083;48.774;8.942;2022-08-24T16:43:33;34.00;43.70
69031;DHT22;56083;48.774;8.942;2022-08-24T16:46:00;33.10;44.90
69031;DHT22;56083;48.774;8.942;2022-08-24T16:48:27;32.70;46.80
69031;DHT22;56083;48.774;8.942;2022-08-24T16:50:53;32.80;46.90
69031;DHT22;56083;48.774;8.942;2022-08-24T16:53:20;32.10;48.00
69031;DHT22;56083;48.774;8.942;2022-08-24T16:55:46;31.50;49.60
69031;DHT22;56083;48.774;8.942;2022-08-24T16:58:13;30.90;51.20
69031;DHT22;56083;48.774;8.942;2022-08-24T17:00:40;30.00;52.90
69031;DHT22;56083;48.774;8.942;2022-08-24T17:03:05;29.50;54.20
69031;DHT22;56083;48.774;8.942;2022-08-24T17:05:31;28.90;55.40
69031;DHT22;56083;48.774;8.942;2022-08-24T17:07:58;28.70;56.90
69031;DHT22;56083;48.774;8.942;2022-08-24T17:10:24;28.50;56.70
69031;DHT22;56083;48.774;8.942;2022-08-24T17:12:52;28.30;57.20
69031;DHT22;56083;48.774;8.942;2022-08-24T17:15:18;28.10;57.80
69031;DHT22;56083;48.774;8.942;2022-08-24T17:17:57;28.00;58.90
69031;DHT22;56083;48.774;8.942;2022-08-24T17:20:26;27.90;58.70
69031;DHT22;56083;48.774;8.942;2022-08-24T17:22:51;27.70;59.00
69031;DHT22;56083;48.774;8.942;2022-08-24T17:25:17;27.50;59.50
69031;DHT22;56083;48.774;8.942;2022-08-24T17:27:43;27.30;59.90
69031;DHT22;56083;48.774;8.942;2022-08-24T17:30:10;27.20;60.40
69031;DHT22;56083;48.774;8.942;2022-08-24T17:32:35;27.10;61.00
69031;DHT22;56083;48.774;8.942;2022-08-24T17:35:02;27.00;61.50
69031;DHT22;56083;48.774;8.942;2022-08-24T17:37:29;26.90;62.00
69031;DHT22;56083;48.774;8.942;2022-08-24T17:39:56;26.80;62.40
69031;DHT22;56083;48.774;8.942;2022-08-24T17:42:23;26.80;62.80
69031;DHT22;56083;48.774;8.942;2022-08-24T17:44:49;26.70;63.10
69031;DHT22;56083;48.774;8.942;2022-08-24T17:47:15;26.60;63.50
69031;DHT22;56083;48.774;8.942;2022-08-24T17:49:42;26.60;64.00
69031;DHT22;56083;48.774;8.942;2022-08-24T17:52:07;26.50;64.30
69031;DHT22;56083;48.774;8.942;2022-08-24T17:54:33;26.40;64.90
69031;DHT22;56083;48.774;8.942;2022-08-24T17:56:59;26.30;65.40
69031;DHT22;56083;48.774;8.942;2022-08-24T17:59:29;26.20;66.00
69031;DHT22;56083;48.774;8.942;2022-08-24T18:02:02;26.10;66.60
69031;DHT22;56083;48.774;8.942;2022-08-24T18:04:29;26.00;67.00
69031;DHT22;56083;48.774;8.942;2022-08-24T18:06:57;25.90;67.50
69031;DHT22;56083;48.774;8.942;2022-08-24T18:09:30;25.90;68.00
69031;DHT22;56083;48.774;8.942;2022-08-24T18:11:56;25.70;69.30
69031;DHT22;56083;48.774;8.942;2022-08-24T18:14:25;25.60;69.00
69031;DHT22;56083;48.774;8.942;2022-08-24T18:16:51;25.50;69.60
69031;DHT22;56083;48.774;8.942;2022-08-24T18:19:17;25.40;70.10
69031;DHT22;56083;48.774;8.942;2022-08-24T18:21:44;25.30;70.70
69031;DHT22;56083;48.774;8.942;2022-08-24T18:24:09;25.20;71.20
69031;DHT22;56083;48.774;8.942;2022-08-24T18:26:36;25.10;71.80
69031;DHT22;56083;48.774;8.942;2022-08-24T18:29:17;25.00;72.40
69031;DHT22;56083;48.774;8.942;2022-08-24T18:31:44;24.90;73.10
69031;DHT22;56083;48.774;8.942;2022-08-24T18:34:12;24.70;73.70
69031;DHT22;56083;48.774;8.942;2022-08-24T18:36:39;24.60;74.10
69031;DHT22;56083;48.774;8.942;2022-08-24T18:39:05;24.50;74.90
69031;DHT22;56083;48.774;8.942;2022-08-24T18:41:34;24.40;76.10
69031;DHT22;56083;48.774;8.942;2022-08-24T18:44:02;24.30;76.50
69031;DHT22;56083;48.774;8.942;2022-08-24T18:46:29;24.20;77.10
69031;DHT22;56083;48.774;8.942;2022-08-24T18:48:56;24.10;77.70
69031;DHT22;56083;48.774;8.942;2022-08-24T18:51:21;24.00;78.10
69031;DHT22;56083;48.774;8.942;2022-08-24T18:53:50;24.00;78.80
69031;DHT22;56083;48.774;8.942;2022-08-24T18:56:17;23.90;79.90
69031;DHT22;56083;48.774;8.942;2022-08-24T18:58:43;23.80;81.50
69031;DHT22;56083;48.774;8.942;2022-08-24T19:01:09;23.70;81.30
69031;DHT22;56083;48.774;8.942;2022-08-24T19:03:35;23.60;81.80
69031;DHT22;56083;48.774;8.942;2022-08-24T19:06:02;23.60;82.60
69031;DHT22;56083;48.774;8.942;2022-08-24T19:08:28;23.50;83.20
69031;DHT22;56083;48.774;8.942;2022-08-24T19:10:54;23.50;83.80
69031;DHT22;56083;48.774;8.942;2022-08-24T19:13:20;23.40;84.00
69031;DHT22;56083;48.774;8.942;2022-08-24T19:15:47;23.50;84.60
69031;DHT22;56083;48.774;8.942;2022-08-24T19:18:16;23.40;85.90
69031;DHT22;56083;48.774;8.942;2022-08-24T19:20:48;23.40;85.60